createdAt,value
2018-04-11T00:01:04.687Z,4.50
2018-04-11T00:03:30.952Z,3.27
2018-04-11T00:05:57.171Z,4.63
2018-04-11T00:08:23.471Z,3.70
2018-04-11T00:10:49.761Z,3.57
2018-04-11T00:13:16.869Z,3.30
2018-04-11T00:15:43.113Z,3.60
2018-04-11T00:18:10.199Z,3.83
2018-04-11T00:20:36.468Z,3.87
2018-04-11T00:23:02.775Z,4.37
2018-04-11T00:25:28.929Z,4.07
2018-04-11T00:27:55.192Z,3.47
2018-04-11T00:30:22.297Z,4.10
2018-04-11T00:32:48.574Z,3.37
2018-04-11T00:35:15.630Z,4.10
2018-04-11T00:37:41.814Z,3.77
2018-04-11T00:40:08.230Z,3.40
2018-04-11T00:42:34.465Z,3.40
2018-04-11T00:45:00.692Z,3.57
2018-04-11T00:47:26.883Z,3.63
2018-04-11T00:49:53.141Z,3.60
2018-04-11T00:52:19.397Z,3.50
2018-04-11T00:54:45.689Z,3.47
2018-04-11T00:57:11.980Z,3.43
2018-04-11T00:59:38.289Z,3.47
2018-04-11T01:02:05.279Z,3.43
2018-04-11T01:04:31.600Z,3.37
2018-04-11T01:06:57.894Z,3.63
2018-04-11T01:09:24.892Z,3.37
2018-04-11T01:11:51.147Z,3.37
2018-04-11T01:14:18.143Z,3.33
2018-04-11T01:16:44.397Z,3.47
2018-04-11T01:19:10.856Z,4.13
2018-04-11T01:21:37.049Z,3.43
2018-04-11T01:24:03.289Z,3.57
2018-04-11T01:26:29.616Z,4.03
2018-04-11T01:28:55.835Z,3.67
2018-04-11T01:31:22.252Z,3.23
2018-04-11T01:33:48.512Z,3.37
2018-04-11T01:36:14.753Z,3.60
2018-04-11T01:38:41.267Z,3.97
2018-04-11T01:41:07.522Z,3.90
2018-04-11T01:43:34.641Z,4.00
2018-04-11T01:46:00.814Z,3.77
2018-04-11T01:48:27.143Z,3.50
2018-04-11T01:50:53.470Z,3.73
2018-04-11T01:53:19.643Z,3.90
2018-04-11T01:55:45.935Z,3.37
2018-04-11T01:58:12.223Z,3.67
2018-04-11T02:00:39.287Z,4.03
2018-04-11T02:03:06.329Z,4.20
2018-04-11T02:05:33.373Z,3.67
2018-04-11T02:07:59.994Z,3.80
2018-04-11T02:10:27.044Z,3.50
2018-04-11T02:12:53.471Z,4.13
2018-04-11T02:15:22.614Z,3.63
2018-04-11T02:17:48.785Z,3.83
2018-04-11T02:20:14.980Z,3.83
2018-04-11T02:22:41.232Z,3.80
2018-04-11T02:25:07.397Z,3.50
2018-04-11T02:27:34.614Z,4.40
2018-04-11T02:30:01.796Z,3.93
2018-04-11T02:32:28.817Z,4.50
2018-04-11T02:34:54.995Z,4.10
2018-04-11T02:37:21.162Z,4.30
2018-04-11T02:39:47.411Z,4.10
2018-04-11T02:42:13.653Z,4.13
2018-04-11T02:44:40.661Z,4.10
2018-04-11T02:47:06.845Z,4.20
2018-04-11T02:49:33.147Z,4.20
2018-04-11T02:52:00.652Z,3.93
2018-04-11T02:54:27.037Z,4.40
2018-04-11T02:56:54.081Z,4.70
2018-04-11T02:59:21.196Z,5.20
2018-04-11T03:01:47.469Z,4.30
2018-04-11T03:04:13.671Z,4.53
2018-04-11T03:06:39.925Z,5.00
2018-04-11T03:09:06.141Z,5.43
2018-04-11T03:11:33.125Z,4.77
2018-04-11T03:13:59.351Z,4.80
2018-04-11T03:16:25.643Z,4.60
2018-04-11T03:18:52.571Z,4.60
2018-04-11T03:21:19.869Z,4.73
2018-04-11T03:23:46.098Z,5.07
2018-04-11T03:26:12.325Z,4.90
2018-04-11T03:28:38.597Z,5.67
2018-04-11T03:31:04.850Z,4.47
2018-04-11T03:33:31.935Z,4.60
2018-04-11T03:35:58.217Z,5.33
2018-04-11T03:38:25.108Z,5.20
2018-04-11T03:40:51.406Z,5.70
2018-04-11T03:43:17.784Z,5.40
2018-04-11T03:45:44.333Z,6.07
2018-04-11T03:48:12.010Z,5.80
2018-04-11T03:50:39.168Z,7.00
2018-04-11T03:53:05.561Z,5.50
2018-04-11T03:55:31.892Z,6.10
2018-04-11T03:57:58.300Z,5.73
2018-04-11T04:00:24.569Z,6.13
2018-04-11T04:02:50.963Z,5.87
2018-04-11T04:05:17.222Z,6.23
2018-04-11T04:07:44.348Z,6.73
2018-04-11T04:10:10.651Z,6.57
2018-04-11T04:12:37.141Z,6.50
2018-04-11T04:15:16.081Z,6.70
2018-04-11T04:17:54.712Z,6.50
2018-04-11T04:20:27.189Z,6.43
2018-04-11T04:22:53.478Z,6.00
2018-04-11T04:25:19.753Z,6.40
2018-04-11T04:27:46.073Z,6.60
2018-04-11T04:30:12.449Z,6.00
2018-04-11T04:32:38.745Z,7.03
2018-04-11T04:35:05.061Z,6.30
2018-04-11T04:37:31.331Z,5.97
2018-04-11T04:39:57.592Z,6.70
2018-04-11T04:42:24.627Z,7.40
2018-04-11T04:44:50.878Z,7.00
2018-04-11T04:47:17.112Z,7.10
2018-04-11T04:49:43.455Z,7.70
2018-04-11T04:52:09.767Z,7.30
2018-04-11T04:54:36.777Z,7.37
2018-04-11T04:57:03.684Z,7.00
2018-04-11T04:59:29.953Z,6.83
2018-04-11T05:01:56.991Z,7.23
2018-04-11T05:04:23.789Z,8.83
2018-04-11T05:06:50.007Z,8.47
2018-04-11T05:09:16.379Z,8.43
2018-04-11T05:11:42.732Z,8.60
2018-04-11T05:14:09.959Z,8.83
2018-04-11T05:16:36.269Z,10.03
2018-04-11T05:19:02.642Z,10.90
2018-04-11T05:21:29.713Z,11.70
2018-04-11T05:23:56.081Z,11.93
2018-04-11T05:26:22.422Z,13.30
2018-04-11T05:28:48.668Z,12.87
2018-04-11T05:31:16.577Z,13.93
2018-04-11T05:33:42.999Z,12.70
2018-04-11T05:36:10.212Z,13.67
2018-04-11T05:38:36.424Z,16.60
2018-04-11T05:41:02.802Z,26.77
2018-04-11T05:43:29.950Z,13.70
2018-04-11T05:45:56.938Z,15.30
2018-04-11T05:48:23.148Z,16.87
2018-04-11T05:50:49.455Z,18.13
2018-04-11T05:53:16.553Z,17.70
2018-04-11T05:55:42.849Z,16.60
2018-04-11T05:58:09.111Z,16.80
2018-04-11T06:00:35.355Z,14.63
2018-04-11T06:03:01.607Z,14.63
2018-04-11T06:05:28.552Z,11.87
2018-04-11T06:07:55.564Z,13.30
2018-04-11T06:10:21.792Z,12.80
2018-04-11T06:12:48.080Z,13.20
2018-04-11T06:15:14.450Z,13.40
2018-04-11T06:17:40.701Z,14.33
2018-04-11T06:20:07.866Z,11.67
2018-04-11T06:22:34.153Z,12.07
2018-04-11T06:25:00.299Z,11.77
2018-04-11T06:27:26.468Z,11.00
2018-04-11T06:29:52.758Z,11.77
2018-04-11T06:32:19.934Z,11.07
2018-04-11T06:34:46.133Z,10.50
2018-04-11T06:37:13.297Z,9.80
2018-04-11T06:39:40.392Z,9.17
2018-04-11T06:42:06.686Z,9.57
2018-04-11T06:44:32.947Z,9.70
2018-04-11T06:46:59.566Z,9.87
2018-04-11T06:49:26.111Z,8.67
2018-04-11T06:51:52.555Z,9.00
2018-04-11T06:54:18.728Z,8.80
2018-04-11T06:56:45.725Z,10.70
2018-04-11T06:59:12.003Z,9.37
2018-04-11T07:01:38.924Z,9.30
2018-04-11T07:04:05.237Z,9.20
2018-04-11T07:06:32.236Z,9.50
2018-04-11T07:08:58.456Z,8.80
2018-04-11T07:11:24.699Z,8.53
2018-04-11T07:13:50.923Z,8.83
2018-04-11T07:16:17.199Z,7.60
2018-04-11T07:18:43.614Z,8.40
2018-04-11T07:21:09.844Z,7.63
2018-04-11T07:23:36.111Z,7.93
2018-04-11T07:26:03.051Z,8.23
2018-04-11T07:28:30.234Z,7.50
2018-04-11T07:30:56.380Z,7.30
2018-04-11T07:33:22.748Z,6.73
2018-04-11T07:35:49.713Z,7.00
2018-04-11T07:38:16.026Z,7.03
2018-04-11T07:40:43.907Z,7.07
2018-04-11T07:43:10.222Z,7.30
2018-04-11T07:45:37.271Z,6.60
2018-04-11T07:48:04.300Z,6.80
2018-04-11T07:50:30.648Z,5.70
2018-04-11T07:52:57.581Z,5.93
2018-04-11T07:55:24.714Z,4.87
2018-04-11T07:57:51.672Z,5.73
2018-04-11T08:00:17.857Z,5.40
2018-04-11T08:02:44.055Z,4.47
2018-04-11T08:05:10.300Z,4.03
2018-04-11T08:07:36.461Z,4.50
2018-04-11T08:10:03.169Z,4.50
2018-04-11T08:12:30.156Z,4.27
2018-04-11T08:14:56.557Z,5.17
2018-04-11T08:17:22.802Z,4.00
2018-04-11T08:19:49.164Z,4.20
2018-04-11T08:22:16.313Z,4.60
2018-04-11T08:24:43.540Z,4.67
2018-04-11T08:27:09.807Z,4.30
2018-04-11T08:29:36.134Z,4.20
2018-04-11T08:32:02.504Z,4.10
2018-04-11T08:34:28.677Z,3.80
2018-04-11T08:36:55.889Z,3.90
2018-04-11T08:39:22.499Z,3.70
2018-04-11T08:41:48.641Z,3.70
2018-04-11T08:44:15.107Z,3.77
2018-04-11T08:46:42.103Z,3.60
2018-04-11T08:49:08.347Z,3.33
2018-04-11T08:51:35.034Z,3.47
2018-04-11T08:54:02.088Z,3.90
2018-04-11T08:56:28.328Z,3.80
2018-04-11T08:58:54.517Z,4.10
2018-04-11T09:01:20.811Z,4.27
2018-04-11T09:03:47.105Z,4.30
2018-04-11T09:06:13.308Z,3.60
2018-04-11T09:08:40.406Z,3.80
2018-04-11T09:11:06.722Z,3.50
2018-04-11T09:13:32.917Z,4.40
2018-04-11T09:15:59.857Z,3.93
2018-04-11T09:18:27.335Z,4.20
2018-04-11T09:20:53.614Z,3.57
2018-04-11T09:23:20.647Z,3.90
2018-04-11T09:25:46.913Z,3.57
2018-04-11T09:28:13.926Z,3.73
2018-04-11T09:30:40.195Z,3.90
2018-04-11T09:33:07.205Z,3.87
2018-04-11T09:35:33.447Z,3.40
2018-04-11T09:37:59.679Z,3.17
2018-04-11T09:40:25.866Z,3.37
2018-04-11T09:42:52.119Z,3.43
2018-04-11T09:45:18.395Z,3.50
2018-04-11T09:47:44.675Z,3.20
2018-04-11T09:50:10.890Z,4.17
2018-04-11T09:52:37.093Z,4.60
2018-04-11T09:55:03.290Z,3.87
2018-04-11T09:57:29.509Z,4.30
2018-04-11T09:59:56.475Z,4.27
2018-04-11T10:02:23.588Z,3.87
2018-04-11T10:04:49.769Z,4.20
2018-04-11T10:07:15.998Z,4.10
2018-04-11T10:09:42.280Z,4.00
2018-04-11T10:12:09.343Z,3.93
2018-04-11T10:14:35.920Z,3.13
2018-04-11T10:17:02.193Z,3.70
2018-04-11T10:19:29.110Z,4.30
2018-04-11T10:21:55.383Z,3.93
2018-04-11T10:24:21.682Z,3.37
2018-04-11T10:26:48.605Z,3.50
2018-04-11T10:29:15.166Z,3.70
2018-04-11T10:31:42.384Z,4.23
2018-04-11T10:34:09.017Z,4.40
2018-04-11T10:36:35.402Z,4.20
2018-04-11T10:39:01.677Z,5.13
2018-04-11T10:41:28.018Z,6.37
2018-04-11T10:43:54.269Z,4.30
2018-04-11T10:46:21.307Z,4.43
2018-04-11T10:48:48.335Z,7.90
2018-04-11T10:51:14.638Z,10.27
2018-04-11T10:53:40.929Z,6.30
2018-04-11T10:56:07.932Z,4.73
2018-04-11T10:58:34.233Z,4.33
2018-04-11T11:01:00.756Z,4.30
2018-04-11T11:03:27.045Z,3.33
2018-04-11T11:05:53.210Z,3.63
2018-04-11T11:08:19.492Z,3.03
2018-04-11T11:10:45.773Z,3.50
2018-04-11T11:13:12.208Z,3.83
2018-04-11T11:15:38.596Z,4.97
2018-04-11T11:18:04.840Z,3.50
2018-04-11T11:20:31.842Z,3.90
2018-04-11T11:22:58.078Z,3.60
2018-04-11T11:25:24.548Z,3.50
2018-04-11T11:27:51.580Z,3.70
2018-04-11T11:30:18.630Z,4.10
2018-04-11T11:32:45.636Z,3.30
2018-04-11T11:35:11.892Z,3.70
2018-04-11T11:37:38.228Z,3.63
2018-04-11T11:40:05.201Z,3.27
2018-04-11T11:42:31.532Z,3.10
2018-04-11T11:44:57.903Z,12.03
2018-04-11T11:47:24.436Z,3.57
2018-04-11T11:49:50.722Z,2.70
2018-04-11T11:52:17.031Z,3.37
2018-04-11T11:54:44.053Z,2.67
2018-04-11T11:57:10.504Z,2.93
2018-04-11T11:59:37.741Z,3.03
2018-04-11T12:02:04.058Z,3.30
2018-04-11T12:04:30.233Z,2.70
2018-04-11T12:06:56.506Z,2.97
2018-04-11T12:09:22.830Z,3.27
2018-04-11T12:11:49.075Z,2.73
2018-04-11T12:14:15.440Z,2.20
2018-04-11T12:16:42.578Z,5.27
2018-04-11T12:19:09.587Z,4.80
2018-04-11T12:21:35.903Z,4.57
2018-04-11T12:24:02.320Z,4.23
2018-04-11T12:26:28.569Z,2.83
2018-04-11T12:28:54.869Z,3.40
2018-04-11T12:31:21.242Z,3.00
2018-04-11T12:33:47.787Z,3.40
2018-04-11T12:36:14.060Z,3.67
2018-04-11T12:38:40.299Z,3.93
2018-04-11T12:41:06.557Z,5.27
2018-04-11T12:43:32.990Z,6.40
2018-04-11T12:45:59.163Z,6.87
2018-04-11T12:48:25.409Z,6.60
2018-04-11T12:50:51.721Z,7.33
2018-04-11T12:53:18.824Z,7.53
2018-04-11T12:55:45.128Z,6.97
2018-04-11T12:58:11.482Z,6.70
2018-04-11T13:00:37.817Z,7.00
2018-04-11T13:03:04.140Z,6.90
2018-04-11T13:05:30.468Z,7.43
2018-04-11T13:07:56.942Z,7.33
2018-04-11T13:10:24.000Z,12.07
2018-04-11T13:12:51.083Z,17.57
2018-04-11T13:15:17.640Z,10.40
2018-04-11T13:17:43.833Z,9.63
2018-04-11T13:20:10.034Z,16.23
2018-04-11T13:22:36.285Z,15.80
2018-04-11T13:25:02.558Z,8.10
2018-04-11T13:27:28.817Z,10.10
2018-04-11T13:29:55.120Z,7.60
2018-04-11T13:32:21.348Z,6.30
2018-04-11T13:34:47.549Z,6.43
2018-04-11T13:37:13.827Z,5.83
2018-04-11T13:39:40.821Z,5.97
2018-04-11T13:42:07.062Z,4.90
2018-04-11T13:44:34.056Z,4.73
2018-04-11T13:47:00.345Z,4.60
2018-04-11T13:49:26.802Z,4.03
2018-04-11T13:51:53.838Z,4.40
2018-04-11T13:54:21.061Z,3.90
2018-04-11T13:56:47.291Z,4.33
2018-04-11T13:59:13.556Z,3.77
2018-04-11T14:01:40.591Z,3.50
2018-04-11T14:04:07.870Z,3.40
2018-04-11T14:06:34.595Z,2.80
2018-04-11T14:09:01.625Z,2.90
2018-04-11T14:11:28.629Z,2.37
2018-04-11T14:13:54.873Z,2.43
2018-04-11T14:16:21.272Z,2.77
2018-04-11T14:18:47.521Z,2.30
2018-04-11T14:21:13.765Z,3.57
2018-04-11T14:23:40.011Z,2.83
2018-04-11T14:26:07.143Z,3.20
2018-04-11T14:28:33.433Z,3.97
2018-04-11T14:30:59.766Z,3.47
2018-04-11T14:33:26.047Z,3.00
2018-04-11T14:35:52.381Z,3.60
2018-04-11T14:38:19.475Z,4.03
2018-04-11T14:40:45.829Z,4.17
2018-04-11T14:43:12.216Z,4.13
2018-04-11T14:45:38.634Z,3.90
2018-04-11T14:48:05.820Z,4.77
2018-04-11T14:50:32.104Z,5.60
2018-04-11T14:52:59.153Z,6.50
2018-04-11T14:55:25.443Z,7.10
2018-04-11T14:57:51.601Z,6.00
2018-04-11T15:00:17.890Z,5.90
2018-04-11T15:02:45.087Z,6.97
2018-04-11T15:05:12.034Z,6.20
2018-04-11T15:07:39.135Z,5.80
2018-04-11T15:10:05.450Z,5.80
2018-04-11T15:12:31.672Z,6.67
2018-04-11T15:14:58.045Z,9.93
2018-04-11T15:17:24.346Z,7.00
2018-04-11T15:19:50.599Z,7.40
2018-04-11T15:22:16.907Z,6.83
2018-04-11T15:24:43.256Z,6.33
2018-04-11T15:27:09.681Z,6.83
2018-04-11T15:29:35.879Z,7.87
2018-04-11T15:32:10.033Z,8.63
2018-04-11T15:34:36.217Z,8.87
2018-04-11T15:37:02.509Z,8.50
2018-04-11T15:39:29.574Z,7.90
2018-04-11T15:41:55.867Z,9.40
2018-04-11T15:44:22.541Z,8.63
2018-04-11T15:46:48.796Z,8.10
2018-04-11T15:49:15.019Z,5.37
2018-04-11T15:51:41.249Z,5.33
2018-04-11T15:54:07.541Z,5.30
2018-04-11T15:56:35.257Z,4.60
2018-04-11T15:59:01.476Z,4.77
2018-04-11T16:01:27.751Z,4.87
2018-04-11T16:03:54.701Z,4.60
2018-04-11T16:06:21.718Z,4.90
2018-04-11T16:08:47.923Z,4.47
2018-04-11T16:11:14.207Z,5.17
2018-04-11T16:13:40.432Z,5.00
2018-04-11T16:16:07.381Z,6.80
2018-04-11T16:18:33.649Z,5.93
2018-04-11T16:21:00.012Z,6.53
2018-04-11T16:23:26.340Z,5.30
2018-04-11T16:25:53.296Z,5.30
2018-04-11T16:28:19.606Z,6.03
2018-04-11T16:30:45.975Z,6.57
2018-04-11T16:33:12.902Z,6.10
2018-04-11T16:35:39.947Z,3.80
2018-04-11T16:38:07.016Z,4.30
2018-04-11T16:40:33.327Z,3.53
2018-04-11T16:43:00.269Z,4.60
2018-04-11T16:45:27.268Z,3.80
2018-04-11T16:47:53.448Z,4.20
2018-04-11T16:50:20.605Z,4.37
2018-04-11T16:52:47.595Z,4.37
2018-04-11T16:55:13.842Z,4.23
2018-04-11T16:57:40.028Z,4.50
2018-04-11T17:00:06.313Z,4.70
2018-04-11T17:02:33.345Z,4.70
2018-04-11T17:04:59.538Z,4.10
2018-04-11T17:07:25.830Z,3.50
2018-04-11T17:09:52.886Z,4.00
2018-04-11T17:12:19.128Z,3.93
2018-04-11T17:14:45.830Z,3.80
2018-04-11T17:17:12.257Z,3.60
2018-04-11T17:19:38.515Z,5.40
2018-04-11T17:22:18.149Z,6.90
2018-04-11T17:24:57.474Z,5.23
2018-04-11T17:27:36.804Z,5.20
2018-04-11T17:30:16.170Z,6.23
2018-04-11T17:32:42.535Z,26.90
2018-04-11T17:35:08.774Z,23.53
2018-04-11T17:37:35.040Z,15.40
2018-04-11T17:40:02.068Z,18.37
2018-04-11T17:42:29.008Z,14.70
2018-04-11T17:44:56.788Z,9.80
2018-04-11T17:47:23.811Z,10.40
2018-04-11T17:49:50.233Z,9.80
2018-04-11T17:52:16.769Z,11.30
2018-04-11T17:54:42.951Z,8.10
2018-04-11T17:57:11.230Z,9.17
2018-04-11T17:59:37.628Z,8.50
2018-04-11T18:02:04.694Z,10.00
2018-04-11T18:04:30.969Z,9.97
2018-04-11T18:06:57.400Z,12.17
2018-04-11T18:09:23.720Z,10.90
2018-04-11T18:11:50.064Z,10.27
2018-04-11T18:14:16.393Z,8.20
2018-04-11T18:16:42.824Z,6.43
2018-04-11T18:19:09.342Z,16.70
2018-04-11T18:21:36.311Z,11.53
2018-04-11T18:24:03.640Z,27.43
2018-04-11T18:26:29.921Z,19.17
2018-04-11T18:28:56.881Z,22.07
2018-04-11T18:31:23.300Z,8.90
2018-04-11T18:33:50.610Z,7.27
2018-04-11T18:36:16.914Z,9.00
2018-04-11T18:38:43.222Z,8.37
2018-04-11T18:41:09.701Z,8.20
2018-04-11T18:43:36.097Z,8.30
2018-04-11T18:46:02.391Z,9.07
2018-04-11T18:48:29.359Z,12.17
2018-04-11T18:50:55.816Z,12.33
2018-04-11T18:53:22.462Z,12.30
2018-04-11T18:55:48.905Z,12.20
2018-04-11T18:58:15.312Z,10.53
2018-04-11T19:00:41.561Z,9.13
2018-04-11T19:03:07.820Z,10.30
2018-04-11T19:05:34.149Z,10.10
2018-04-11T19:08:00.457Z,9.67
2018-04-11T19:10:26.717Z,9.37
2018-04-11T19:12:53.718Z,10.30
2018-04-11T19:15:21.503Z,11.90
2018-04-11T19:17:47.818Z,11.47
2018-04-11T19:20:14.086Z,11.57
2018-04-11T19:22:41.246Z,10.97
2018-04-11T19:25:07.687Z,11.63
2018-04-11T19:27:33.892Z,12.30
2018-04-11T19:30:01.112Z,16.70
2018-04-11T19:32:28.361Z,17.67
2018-04-11T19:34:54.899Z,17.10
2018-04-11T19:37:21.182Z,17.43
2018-04-11T19:39:47.652Z,17.57
2018-04-11T19:42:14.295Z,20.57
2018-04-11T19:44:41.363Z,16.43
2018-04-11T19:47:07.726Z,17.30
2018-04-11T19:49:34.051Z,16.57
2018-04-11T19:52:00.367Z,18.40
2018-04-11T19:54:26.759Z,19.27
2018-04-11T19:56:52.987Z,23.43
2018-04-11T19:59:19.399Z,22.00
2018-04-11T20:01:45.797Z,22.43
2018-04-11T20:04:12.183Z,20.37
2018-04-11T20:06:38.464Z,17.57
2018-04-11T20:09:04.897Z,15.70
2018-04-11T20:11:31.214Z,13.00
2018-04-11T20:13:59.049Z,11.63
2018-04-11T20:16:25.264Z,12.47
2018-04-11T20:18:51.593Z,12.37
2018-04-11T20:21:17.984Z,12.00
2018-04-11T20:23:45.078Z,12.17
2018-04-11T20:26:11.342Z,11.90
2018-04-11T20:28:38.289Z,11.77
2018-04-11T20:31:04.576Z,11.67
2018-04-11T20:33:30.836Z,11.40
2018-04-11T20:35:57.882Z,11.60
2018-04-11T20:38:24.333Z,12.20
2018-04-11T20:40:50.971Z,11.33
2018-04-11T20:43:17.315Z,12.20
2018-04-11T20:45:43.615Z,15.27
2018-04-11T20:48:10.629Z,14.50
2018-04-11T20:50:36.931Z,15.03
2018-04-11T20:53:03.330Z,19.13
2018-04-11T20:55:29.731Z,17.67
2018-04-11T20:57:56.059Z,18.20
2018-04-11T21:00:23.048Z,18.87
2018-04-11T21:02:49.280Z,17.83
2018-04-11T21:05:15.517Z,14.67
2018-04-11T21:07:41.818Z,15.90
2018-04-11T21:10:08.193Z,15.07
2018-04-11T21:12:35.957Z,15.70
2018-04-11T21:15:02.262Z,16.10
2018-04-11T21:17:28.529Z,15.90
2018-04-11T21:19:55.526Z,14.30
2018-04-11T21:22:21.790Z,13.10
2018-04-11T21:24:48.832Z,14.50
2018-04-11T21:27:15.140Z,20.80
2018-04-11T21:29:41.433Z,28.50
2018-04-11T21:32:07.822Z,25.97
2018-04-11T21:34:34.154Z,27.57
2018-04-11T21:37:00.583Z,28.30
2018-04-11T21:39:26.851Z,24.33
2018-04-11T21:41:54.064Z,24.77
2018-04-11T21:44:20.454Z,22.13
2018-04-11T21:46:46.713Z,19.50
2018-04-11T21:49:12.994Z,20.70
2018-04-11T21:51:39.280Z,21.13
2018-04-11T21:54:05.610Z,22.47
2018-04-11T21:56:32.137Z,20.00
2018-04-11T21:58:58.379Z,21.70
2018-04-11T22:01:24.594Z,18.37
2018-04-11T22:03:50.797Z,18.87
2018-04-11T22:06:16.968Z,17.67
2018-04-11T22:08:43.189Z,15.73
2018-04-11T22:11:09.419Z,16.63
2018-04-11T22:13:35.725Z,23.90
2018-04-11T22:16:01.982Z,26.80
2018-04-11T22:18:29.140Z,22.03
2018-04-11T22:20:56.461Z,23.73
2018-04-11T22:23:22.791Z,18.87
2018-04-11T22:25:49.031Z,15.30
2018-04-11T22:28:16.219Z,21.30
2018-04-11T22:30:42.449Z,19.20
2018-04-11T22:33:08.735Z,19.30
2018-04-11T22:35:36.457Z,18.27
2018-04-11T22:38:02.693Z,18.23
2018-04-11T22:40:28.924Z,17.57
2018-04-11T22:42:55.299Z,15.53
2018-04-11T22:45:21.652Z,14.40
2018-04-11T22:47:47.952Z,16.13
2018-04-11T22:50:14.265Z,16.10
2018-04-11T22:52:40.648Z,17.40
2018-04-11T22:55:07.076Z,16.10
2018-04-11T22:57:33.392Z,16.17
2018-04-11T23:00:00.736Z,14.30
2018-04-11T23:02:27.801Z,14.50
2018-04-11T23:04:54.181Z,13.60
2018-04-11T23:07:20.380Z,14.00
2018-04-11T23:09:46.790Z,15.30
2018-04-11T23:12:13.015Z,13.10
2018-04-11T23:14:39.262Z,14.80
2018-04-11T23:17:05.487Z,15.77
2018-04-11T23:19:31.808Z,15.00
2018-04-11T23:21:57.990Z,16.50
2018-04-11T23:24:24.235Z,17.00
2018-04-11T23:26:51.393Z,16.23
2018-04-11T23:29:17.616Z,15.03
2018-04-11T23:31:44.625Z,13.40
2018-04-11T23:34:11.041Z,12.43
2018-04-11T23:36:37.358Z,14.13
2018-04-11T23:39:03.608Z,13.73
2018-04-11T23:41:30.007Z,13.87
2018-04-11T23:43:56.242Z,13.50
2018-04-11T23:46:22.484Z,13.57
2018-04-11T23:48:48.790Z,14.70
2018-04-11T23:51:15.018Z,14.53
2018-04-11T23:53:41.230Z,13.53
2018-04-11T23:56:07.451Z,12.70
2018-04-11T23:58:34.420Z,13.50
